This is the latest recevied weather packets stored in our database for station/object F5TND-3. If no packets are shown the sender has not sent any weather packets the latest 10 day(s).
| Time | Temp. | Humidity | Pressure | Rain* | Wind** | Luminosity | Snow |
|---|---|---|---|---|---|---|---|
| 1787600714 | 20° C | 98% | 1005.7 hPa | - | - | - | - |
| 1787599514 | 20° C | 99% | 1005.5 hPa | - | - | - | - |
| 1787598314 | 20.56° C | 97% | 1004.7 hPa | - | - | - | - |
| 1787597114 | 21.11° C | 99% | 1004.7 hPa | - | - | - | - |
| 1787595914 | 22.22° C | 100% | 1004.4 hPa | - | - | - | - |
| 1787594714 | 24.44° C | 100% | 1004.6 hPa | - | - | - | - |
| 1787593514 | 23.33° C | 100% | 1004.8 hPa | - | - | - | - |
| 1787592313 | 24.44° C | 100% | 1004.6 hPa | - | - | - | - |
| 1787591113 | 24.44° C | 100% | 1004.7 hPa | - | - | - | - |
| 1787589921 | 23.89° C | 100% | 1005.2 hPa | - | - | - | - |
| 1787588713 | 21.67° C | 100% | 1005.7 hPa | - | - | - | - |
| 1787587513 | 21.11° C | 100% | 1005.4 hPa | - | - | - | - |
| 1787586313 | 20° C | 100% | 1005.4 hPa | - | - | - | - |
| 1787585113 | 19.44° C | 100% | 1005.4 hPa | - | - | - | - |
| 1787583913 | 19.44° C | 100% | 1005.2 hPa | - | - | - | - |
| 1787582714 | 19.44° C | 100% | 1005.2 hPa | - | - | - | - |
| 1787580313 | 19.44° C | 100% | 1005.5 hPa | - | - | - | - |
| 1787579113 | 18.33° C | 100% | 1005.6 hPa | - | - | - | - |
| 1787577913 | 17.78° C | 100% | 1006.4 hPa | - | - | - | - |
| 1787576713 | 16.67° C | 100% | 1007.3 hPa | - | - | - | - |
| 1787575792 | 18.89° C | 100% | 1007.8 hPa | - | - | - | - |
| 1787574592 | 21.11° C | 97% | 1005.3 hPa | - | - | - | - |
| 1787573392 | 26.67° C | 53% | 1005.5 hPa | - | - | - | - |
| 1787572192 | 28.33° C | 44% | 1005.6 hPa | - | - | - | - |
| 1787570992 | 30.56° C | 40% | 1005.6 hPa | - | - | - | - |
* Rain since midnight (hover to see other rain measurements)
** Current wind speed in m/s (hover to see current wind gust speed)